Aviation Digital Data Service (ADDS)

Output produced by METARs form (0459 UTC 26 May 2022)
found at http://www.aviationweather.gov/metar/data/
 
KSAV 260453Z AUTO 14005KT 10SM CLR 24/21 A3014 RMK AO2 SLP207 T02440211 403110222
KSAV 252323Z 2600/2624 12008KT P6SM SCT035 BKN250 
     FM260400 10004KT P6SM SCT025 BKN250 
     FM261400 15011KT P6SM BKN040 
     FM261700 16014G22KT P6SM SCT050 BKN250
       
KSVN 260456Z AUTO 12005KT 10SM CLR 25/24 A3011 RMK AO2 SLP199 T02470238 403050211 $
TAF KSVN 260400Z 2604/2710 16006KT 9999 SCT020 QNH3010INS 
     BECMG 2614/2615 16012G18KT 9999 BKN035 QNH3000INS 
     BECMG 2700/2701 15015KT 9999 FEW030 QNH2998INS 
     BECMG 2706/2707 19009KT 8000 -SHRA BKN020 QNH2997INS TX27/2618Z TN23/2610Z
       
KLHW 260456Z AUTO 10003KT 10SM SCT220 22/21 A3011 RMK AO2 SLP199 T02170205 403070199 $
KTBR 260435Z AUTO 00000KT 10SM BKN008 23/21 A3015 RMK AO2 T02270210
KVDI 260435Z AUTO 13004KT 10SM CLR 23/21 A3014 RMK AO2
KJYL 260436Z AUTO 00000KT 10SM SCT008 23/22 A3016 RMK AO2
KDBN 260430Z AUTO 14007KT 10SM SCT055 23/19 A3014 RMK AO2
KJES 260435Z AUTO 00000KT 10SM CLR 22/21 A3016 RMK AO2
KSSI 260453Z AUTO 14011KT 10SM SCT019 26/22 A3014 RMK AO2 SLP207 T02610217 403060250
KSSI 252324Z 2600/2624 13012KT P6SM SCT025 SCT040 BKN250 
     FM260200 14008KT P6SM FEW025 BKN150 BKN250 
     FM261400 16011KT P6SM SCT025 BKN150 BKN250 
     FM261800 13013G20KT P6SM SCT030 BKN250
       
KBQK 260455Z AUTO 14008KT 10SM SCT019 SCT025 25/23 A3014 RMK AO2 T02480225
KAYS 260435Z AUTO 15005KT 10SM CLR 24/24 A3012 RMK AO2 T02440237
KNBC 260456Z AUTO 10008KT 10SM SCT012 BKN041 25/23 A3015 RMK AO2 SLP211 T02500228 403000217
TAF KNBC 2603/2703 09010KT 9999 SCT010 BKN040 QNH3000INS 
     TEMPO 2618/2623 16010G24KT 9999 SCT030 BKN120 T24/2609Z T30/2619Z
       
KHXD 260455Z AUTO VRB04G10KT 9SM SCT017 BKN035 OVC042 26/24 A3016 RMK AO2